sensor_id;sensor_type;location;lat;lon;timestamp;pressure;altitude;pressure_sealevel;temperature;humidity
29815;BME280;16708;50.426;7.664;2022-08-03T00:02:56;987.91;;;19.08;85.63
29815;BME280;16708;50.426;7.664;2022-08-03T00:07:50;987.93;;;18.95;86.18
29815;BME280;16708;50.426;7.664;2022-08-03T00:12:48;987.90;;;18.97;86.46
29815;BME280;16708;50.426;7.664;2022-08-03T00:17:40;987.93;;;18.90;87.58
29815;BME280;16708;50.426;7.664;2022-08-03T00:22:35;987.86;;;18.79;87.79
29815;BME280;16708;50.426;7.664;2022-08-03T00:27:29;987.85;;;18.72;88.65
29815;BME280;16708;50.426;7.664;2022-08-03T00:32:23;987.86;;;18.56;88.95
29815;BME280;16708;50.426;7.664;2022-08-03T00:37:18;987.87;;;18.46;89.26
29815;BME280;16708;50.426;7.664;2022-08-03T00:42:12;987.76;;;18.50;88.97
29815;BME280;16708;50.426;7.664;2022-08-03T00:47:06;987.81;;;18.50;89.11
29815;BME280;16708;50.426;7.664;2022-08-03T00:52:00;987.76;;;18.55;89.10
29815;BME280;16708;50.426;7.664;2022-08-03T00:56:54;987.77;;;18.51;90.45
29815;BME280;16708;50.426;7.664;2022-08-03T01:06:42;987.68;;;18.23;91.83
29815;BME280;16708;50.426;7.664;2022-08-03T01:11:36;987.70;;;18.20;92.50
29815;BME280;16708;50.426;7.664;2022-08-03T01:16:31;987.65;;;18.14;93.38
29815;BME280;16708;50.426;7.664;2022-08-03T01:21:26;987.60;;;18.10;93.77
29815;BME280;16708;50.426;7.664;2022-08-03T01:26:21;987.57;;;18.00;93.06
29815;BME280;16708;50.426;7.664;2022-08-03T01:31:15;987.64;;;17.98;93.26
29815;BME280;16708;50.426;7.664;2022-08-03T01:36:09;987.53;;;17.86;94.89
29815;BME280;16708;50.426;7.664;2022-08-03T01:41:03;987.51;;;17.88;94.88
29815;BME280;16708;50.426;7.664;2022-08-03T01:45:58;987.46;;;17.76;96.15
29815;BME280;16708;50.426;7.664;2022-08-03T01:50:51;987.45;;;17.80;96.09
29815;BME280;16708;50.426;7.664;2022-08-03T01:55:46;987.57;;;17.73;96.57
29815;BME280;16708;50.426;7.664;2022-08-03T02:00:40;987.48;;;17.71;96.49
29815;BME280;16708;50.426;7.664;2022-08-03T02:05:34;987.47;;;17.70;96.89
29815;BME280;16708;50.426;7.664;2022-08-03T02:10:29;987.42;;;17.56;98.40
29815;BME280;16708;50.426;7.664;2022-08-03T02:15:23;987.39;;;17.60;97.73
29815;BME280;16708;50.426;7.664;2022-08-03T02:20:18;987.40;;;17.51;98.24
29815;BME280;16708;50.426;7.664;2022-08-03T02:25:12;987.46;;;17.47;99.07
29815;BME280;16708;50.426;7.664;2022-08-03T02:30:06;987.48;;;17.40;98.75
29815;BME280;16708;50.426;7.664;2022-08-03T02:35:00;987.50;;;17.23;100.00
29815;BME280;16708;50.426;7.664;2022-08-03T02:39:55;987.45;;;17.19;100.00
29815;BME280;16708;50.426;7.664;2022-08-03T02:44:49;987.39;;;17.17;100.00
29815;BME280;16708;50.426;7.664;2022-08-03T02:49:44;987.41;;;17.17;100.00
29815;BME280;16708;50.426;7.664;2022-08-03T02:54:38;987.37;;;17.09;100.00
29815;BME280;16708;50.426;7.664;2022-08-03T02:59:33;987.41;;;17.14;100.00
29815;BME280;16708;50.426;7.664;2022-08-03T03:04:27;987.35;;;17.11;100.00
29815;BME280;16708;50.426;7.664;2022-08-03T03:09:22;987.45;;;16.94;100.00
29815;BME280;16708;50.426;7.664;2022-08-03T03:14:16;987.39;;;16.94;100.00
29815;BME280;16708;50.426;7.664;2022-08-03T03:19:11;987.35;;;16.72;100.00
29815;BME280;16708;50.426;7.664;2022-08-03T03:24:06;987.37;;;16.74;100.00
29815;BME280;16708;50.426;7.664;2022-08-03T03:29:00;987.35;;;16.76;100.00
29815;BME280;16708;50.426;7.664;2022-08-03T03:33:55;987.38;;;16.74;100.00
29815;BME280;16708;50.426;7.664;2022-08-03T03:38:49;987.40;;;16.64;100.00
29815;BME280;16708;50.426;7.664;2022-08-03T03:43:43;987.42;;;16.61;100.00
29815;BME280;16708;50.426;7.664;2022-08-03T03:48:38;987.44;;;16.57;100.00
29815;BME280;16708;50.426;7.664;2022-08-03T03:53:33;987.50;;;16.57;100.00
29815;BME280;16708;50.426;7.664;2022-08-03T03:58:30;987.45;;;16.59;100.00
29815;BME280;16708;50.426;7.664;2022-08-03T04:03:21;987.42;;;16.48;100.00
29815;BME280;16708;50.426;7.664;2022-08-03T04:08:15;987.44;;;16.49;100.00
29815;BME280;16708;50.426;7.664;2022-08-03T04:13:10;987.44;;;16.59;100.00
29815;BME280;16708;50.426;7.664;2022-08-03T04:18:04;987.48;;;16.53;100.00
29815;BME280;16708;50.426;7.664;2022-08-03T04:22:59;987.42;;;16.56;100.00
29815;BME280;16708;50.426;7.664;2022-08-03T04:27:53;987.52;;;16.62;100.00
29815;BME280;16708;50.426;7.664;2022-08-03T04:32:47;987.55;;;16.72;100.00
29815;BME280;16708;50.426;7.664;2022-08-03T04:37:42;987.58;;;16.77;100.00
29815;BME280;16708;50.426;7.664;2022-08-03T04:42:36;987.56;;;16.76;100.00
29815;BME280;16708;50.426;7.664;2022-08-03T04:47:31;987.61;;;17.00;100.00
29815;BME280;16708;50.426;7.664;2022-08-03T04:52:29;987.61;;;17.11;100.00
29815;BME280;16708;50.426;7.664;2022-08-03T04:57:20;987.63;;;17.41;100.00
29815;BME280;16708;50.426;7.664;2022-08-03T05:02:13;987.63;;;17.65;100.00
29815;BME280;16708;50.426;7.664;2022-08-03T05:07:05;987.55;;;17.91;100.00
29815;BME280;16708;50.426;7.664;2022-08-03T05:11:58;987.59;;;17.99;100.00
29815;BME280;16708;50.426;7.664;2022-08-03T05:16:53;987.66;;;18.17;100.00
29815;BME280;16708;50.426;7.664;2022-08-03T05:21:47;987.70;;;18.47;100.00
29815;BME280;16708;50.426;7.664;2022-08-03T05:26:42;987.72;;;18.77;99.37
29815;BME280;16708;50.426;7.664;2022-08-03T05:31:36;987.76;;;18.99;97.85
29815;BME280;16708;50.426;7.664;2022-08-03T05:36:31;987.83;;;19.30;94.23
29815;BME280;16708;50.426;7.664;2022-08-03T05:41:26;987.76;;;19.55;92.80
29815;BME280;16708;50.426;7.664;2022-08-03T05:46:21;987.82;;;19.62;91.64
29815;BME280;16708;50.426;7.664;2022-08-03T05:51:15;987.78;;;19.95;90.60
29815;BME280;16708;50.426;7.664;2022-08-03T05:56:09;987.83;;;20.11;89.84
29815;BME280;16708;50.426;7.664;2022-08-03T06:01:03;987.78;;;20.50;83.95
29815;BME280;16708;50.426;7.664;2022-08-03T06:05:59;987.82;;;20.66;82.25
29815;BME280;16708;50.426;7.664;2022-08-03T06:10:53;987.75;;;21.03;78.54
29815;BME280;16708;50.426;7.664;2022-08-03T06:15:47;987.76;;;21.27;79.60
29815;BME280;16708;50.426;7.664;2022-08-03T06:20:41;987.83;;;21.51;78.31
29815;BME280;16708;50.426;7.664;2022-08-03T06:25:36;987.82;;;21.70;79.09
29815;BME280;16708;50.426;7.664;2022-08-03T06:30:31;987.78;;;21.82;75.49
29815;BME280;16708;50.426;7.664;2022-08-03T06:35:25;987.96;;;22.09;76.22
29815;BME280;16708;50.426;7.664;2022-08-03T06:40:20;987.88;;;22.35;73.20
29815;BME280;16708;50.426;7.664;2022-08-03T06:45:15;987.85;;;22.36;73.76
29815;BME280;16708;50.426;7.664;2022-08-03T06:50:08;987.91;;;22.55;72.71
29815;BME280;16708;50.426;7.664;2022-08-03T06:55:03;987.90;;;22.53;72.81
29815;BME280;16708;50.426;7.664;2022-08-03T06:59:57;987.92;;;22.78;71.82
29815;BME280;16708;50.426;7.664;2022-08-03T07:04:51;987.96;;;22.83;69.71
29815;BME280;16708;50.426;7.664;2022-08-03T07:09:46;988.00;;;23.04;68.35
29815;BME280;16708;50.426;7.664;2022-08-03T07:14:40;987.92;;;23.24;66.87
29815;BME280;16708;50.426;7.664;2022-08-03T07:19:35;988.08;;;23.55;65.97
29815;BME280;16708;50.426;7.664;2022-08-03T07:24:30;988.05;;;23.77;64.05
29815;BME280;16708;50.426;7.664;2022-08-03T07:29:24;988.17;;;24.03;64.43
29815;BME280;16708;50.426;7.664;2022-08-03T07:34:18;988.12;;;24.42;63.13
29815;BME280;16708;50.426;7.664;2022-08-03T07:39:12;988.05;;;24.71;60.71
29815;BME280;16708;50.426;7.664;2022-08-03T07:44:07;988.13;;;24.79;58.30
29815;BME280;16708;50.426;7.664;2022-08-03T07:49:01;988.02;;;25.08;57.02
29815;BME280;16708;50.426;7.664;2022-08-03T07:53:57;987.97;;;25.18;56.65
29815;BME280;16708;50.426;7.664;2022-08-03T07:58:51;987.96;;;25.50;55.73
29815;BME280;16708;50.426;7.664;2022-08-03T08:03:46;987.91;;;26.00;56.71
29815;BME280;16708;50.426;7.664;2022-08-03T08:08:41;987.87;;;26.51;55.36
29815;BME280;16708;50.426;7.664;2022-08-03T08:13:35;987.97;;;26.42;53.45
29815;BME280;16708;50.426;7.664;2022-08-03T08:18:30;987.92;;;26.14;52.79
29815;BME280;16708;50.426;7.664;2022-08-03T08:23:25;988.00;;;26.12;49.49
29815;BME280;16708;50.426;7.664;2022-08-03T08:28:19;988.06;;;26.32;48.39
29815;BME280;16708;50.426;7.664;2022-08-03T08:33:16;988.03;;;26.66;48.20
29815;BME280;16708;50.426;7.664;2022-08-03T08:38:09;987.90;;;27.18;48.06
29815;BME280;16708;50.426;7.664;2022-08-03T08:43:04;988.02;;;27.48;45.86
29815;BME280;16708;50.426;7.664;2022-08-03T08:47:59;987.94;;;27.20;46.55
29815;BME280;16708;50.426;7.664;2022-08-03T08:52:53;988.00;;;27.73;45.19
29815;BME280;16708;50.426;7.664;2022-08-03T08:57:48;988.00;;;27.77;44.25
29815;BME280;16708;50.426;7.664;2022-08-03T09:02:42;987.94;;;27.99;43.62
29815;BME280;16708;50.426;7.664;2022-08-03T09:07:38;987.91;;;28.04;42.20
29815;BME280;16708;50.426;7.664;2022-08-03T09:17:28;987.84;;;28.39;39.12
29815;BME280;16708;50.426;7.664;2022-08-03T09:22:23;987.90;;;28.36;38.39
29815;BME280;16708;50.426;7.664;2022-08-03T09:27:17;987.81;;;28.74;38.45
29815;BME280;16708;50.426;7.664;2022-08-03T09:32:12;987.78;;;28.90;37.46
29815;BME280;16708;50.426;7.664;2022-08-03T09:37:07;987.81;;;29.32;36.22
29815;BME280;16708;50.426;7.664;2022-08-03T09:42:02;987.76;;;29.39;36.60
29815;BME280;16708;50.426;7.664;2022-08-03T09:46:57;987.74;;;29.90;35.02
29815;BME280;16708;50.426;7.664;2022-08-03T09:51:51;987.80;;;30.87;33.73
29815;BME280;16708;50.426;7.664;2022-08-03T09:56:47;987.81;;;32.64;30.47
29815;BME280;16708;50.426;7.664;2022-08-03T10:01:44;987.82;;;32.87;29.80
29815;BME280;16708;50.426;7.664;2022-08-03T10:06:39;987.88;;;33.27;28.53
29815;BME280;16708;50.426;7.664;2022-08-03T10:11:36;987.67;;;33.43;28.26
29815;BME280;16708;50.426;7.664;2022-08-03T10:16:32;987.73;;;34.03;27.43
29815;BME280;16708;50.426;7.664;2022-08-03T10:21:28;987.71;;;34.24;27.10
29815;BME280;16708;50.426;7.664;2022-08-03T10:26:23;987.55;;;35.35;25.62
29815;BME280;16708;50.426;7.664;2022-08-03T10:31:19;987.58;;;34.75;26.76
29815;BME280;16708;50.426;7.664;2022-08-03T10:36:14;987.46;;;34.37;27.50
29815;BME280;16708;50.426;7.664;2022-08-03T10:41:09;987.51;;;35.34;25.98
29815;BME280;16708;50.426;7.664;2022-08-03T10:46:04;987.40;;;36.46;25.25
29815;BME280;16708;50.426;7.664;2022-08-03T10:55:53;987.31;;;34.73;26.79
29815;BME280;16708;50.426;7.664;2022-08-03T11:05:43;987.26;;;34.39;26.32
29815;BME280;16708;50.426;7.664;2022-08-03T11:10:38;987.17;;;37.30;23.66
29815;BME280;16708;50.426;7.664;2022-08-03T11:15:32;987.21;;;37.67;22.15
29815;BME280;16708;50.426;7.664;2022-08-03T11:20:27;987.12;;;35.86;24.30
29815;BME280;16708;50.426;7.664;2022-08-03T11:25:22;987.11;;;36.80;23.45
29815;BME280;16708;50.426;7.664;2022-08-03T11:35:12;986.96;;;36.89;23.56
29815;BME280;16708;50.426;7.664;2022-08-03T11:40:08;987.09;;;37.60;22.37
29815;BME280;16708;50.426;7.664;2022-08-03T11:45:03;987.05;;;36.88;23.49
29815;BME280;16708;50.426;7.664;2022-08-03T11:50:04;987.04;;;36.84;23.97
29815;BME280;16708;50.426;7.664;2022-08-03T11:54:52;986.99;;;36.52;23.00
29815;BME280;16708;50.426;7.664;2022-08-03T12:04:43;986.94;;;39.24;20.55
29815;BME280;16708;50.426;7.664;2022-08-03T12:09:39;986.80;;;37.57;21.38
29815;BME280;16708;50.426;7.664;2022-08-03T12:14:34;986.77;;;37.81;21.75
29815;BME280;16708;50.426;7.664;2022-08-03T12:19:28;986.77;;;36.89;22.84
29815;BME280;16708;50.426;7.664;2022-08-03T12:24:23;986.72;;;38.40;21.21
29815;BME280;16708;50.426;7.664;2022-08-03T12:29:18;986.66;;;36.15;22.89
29815;BME280;16708;50.426;7.664;2022-08-03T12:34:13;986.71;;;38.61;20.03
29815;BME280;16708;50.426;7.664;2022-08-03T12:39:08;986.74;;;41.67;18.70
29815;BME280;16708;50.426;7.664;2022-08-03T12:48:58;986.74;;;40.17;18.98
29815;BME280;16708;50.426;7.664;2022-08-03T12:53:52;986.60;;;40.87;19.15
29815;BME280;16708;50.426;7.664;2022-08-03T13:08:38;986.54;;;39.35;18.76
29815;BME280;16708;50.426;7.664;2022-08-03T13:13:32;986.55;;;40.50;18.00
29815;BME280;16708;50.426;7.664;2022-08-03T13:18:27;986.52;;;38.96;18.87
29815;BME280;16708;50.426;7.664;2022-08-03T13:23:22;986.37;;;38.95;19.73
29815;BME280;16708;50.426;7.664;2022-08-03T13:28:16;986.48;;;39.87;19.10
29815;BME280;16708;50.426;7.664;2022-08-03T13:33:11;986.40;;;42.06;16.97
29815;BME280;16708;50.426;7.664;2022-08-03T13:38:06;986.36;;;41.76;16.76
29815;BME280;16708;50.426;7.664;2022-08-03T13:43:01;986.32;;;40.68;17.10
29815;BME280;16708;50.426;7.664;2022-08-03T13:47:56;986.21;;;42.16;16.44
29815;BME280;16708;50.426;7.664;2022-08-03T13:52:59;986.24;;;41.19;16.69
29815;BME280;16708;50.426;7.664;2022-08-03T13:57:45;986.16;;;41.46;16.27
29815;BME280;16708;50.426;7.664;2022-08-03T14:02:39;986.09;;;42.82;15.36
29815;BME280;16708;50.426;7.664;2022-08-03T14:07:34;986.01;;;41.94;15.99
29815;BME280;16708;50.426;7.664;2022-08-03T14:12:29;986.01;;;42.45;15.57
29815;BME280;16708;50.426;7.664;2022-08-03T14:17:24;986.05;;;43.92;14.02
29815;BME280;16708;50.426;7.664;2022-08-03T14:22:18;985.95;;;40.48;16.37
29815;BME280;16708;50.426;7.664;2022-08-03T14:27:13;985.83;;;40.30;16.03
29815;BME280;16708;50.426;7.664;2022-08-03T14:32:06;985.82;;;41.27;15.52
29815;BME280;16708;50.426;7.664;2022-08-03T14:37:00;985.85;;;40.16;17.01
29815;BME280;16708;50.426;7.664;2022-08-03T14:41:53;985.77;;;42.20;15.09
29815;BME280;16708;50.426;7.664;2022-08-03T14:46:48;985.73;;;43.03;14.46
29815;BME280;16708;50.426;7.664;2022-08-03T14:51:43;985.67;;;43.61;14.06
29815;BME280;16708;50.426;7.664;2022-08-03T14:56:37;985.60;;;40.69;15.84
29815;BME280;16708;50.426;7.664;2022-08-03T15:01:32;985.62;;;41.62;15.01
29815;BME280;16708;50.426;7.664;2022-08-03T15:06:27;985.58;;;40.81;15.33
29815;BME280;16708;50.426;7.664;2022-08-03T15:11:21;985.49;;;42.30;15.27
29815;BME280;16708;50.426;7.664;2022-08-03T15:16:15;985.51;;;43.41;13.49
29815;BME280;16708;50.426;7.664;2022-08-03T15:21:10;985.43;;;44.63;12.90
29815;BME280;16708;50.426;7.664;2022-08-03T15:26:05;985.34;;;44.27;13.28
29815;BME280;16708;50.426;7.664;2022-08-03T15:31:00;985.28;;;44.39;13.02
29815;BME280;16708;50.426;7.664;2022-08-03T15:35:53;985.20;;;44.42;13.31
29815;BME280;16708;50.426;7.664;2022-08-03T15:40:48;985.30;;;42.54;14.28
29815;BME280;16708;50.426;7.664;2022-08-03T15:45:43;985.17;;;38.80;17.50
29815;BME280;16708;50.426;7.664;2022-08-03T15:50:37;985.09;;;40.44;16.02
29815;BME280;16708;50.426;7.664;2022-08-03T15:55:31;985.04;;;40.75;16.17
29815;BME280;16708;50.426;7.664;2022-08-03T16:00:25;985.05;;;41.76;14.41
29815;BME280;16708;50.426;7.664;2022-08-03T16:05:20;984.98;;;40.62;15.87
29815;BME280;16708;50.426;7.664;2022-08-03T16:10:14;984.98;;;40.93;15.94
29815;BME280;16708;50.426;7.664;2022-08-03T16:15:09;984.93;;;42.27;14.72
29815;BME280;16708;50.426;7.664;2022-08-03T16:20:03;984.89;;;42.64;14.13
29815;BME280;16708;50.426;7.664;2022-08-03T16:24:58;984.81;;;42.11;14.76
29815;BME280;16708;50.426;7.664;2022-08-03T16:29:52;984.81;;;42.37;14.76
29815;BME280;16708;50.426;7.664;2022-08-03T16:34:47;984.80;;;41.75;14.63
29815;BME280;16708;50.426;7.664;2022-08-03T16:39:41;984.82;;;42.29;14.36
29815;BME280;16708;50.426;7.664;2022-08-03T16:44:36;984.81;;;42.23;14.54
29815;BME280;16708;50.426;7.664;2022-08-03T16:49:31;984.81;;;43.71;13.59
29815;BME280;16708;50.426;7.664;2022-08-03T16:54:26;984.73;;;43.92;14.06
29815;BME280;16708;50.426;7.664;2022-08-03T16:59:21;984.73;;;42.90;14.20
29815;BME280;16708;50.426;7.664;2022-08-03T17:04:15;984.74;;;42.10;15.03
29815;BME280;16708;50.426;7.664;2022-08-03T17:09:09;984.73;;;43.56;14.20
29815;BME280;16708;50.426;7.664;2022-08-03T17:14:04;984.76;;;43.42;13.22
29815;BME280;16708;50.426;7.664;2022-08-03T17:18:58;984.69;;;43.29;14.09
29815;BME280;16708;50.426;7.664;2022-08-03T17:23:52;984.66;;;42.98;14.49
29815;BME280;16708;50.426;7.664;2022-08-03T17:28:47;984.59;;;41.49;15.35
29815;BME280;16708;50.426;7.664;2022-08-03T17:33:41;984.61;;;39.40;17.31
29815;BME280;16708;50.426;7.664;2022-08-03T17:38:36;984.58;;;41.04;16.24
29815;BME280;16708;50.426;7.664;2022-08-03T17:43:31;984.63;;;41.07;15.92
29815;BME280;16708;50.426;7.664;2022-08-03T17:48:26;984.59;;;40.69;16.02
29815;BME280;16708;50.426;7.664;2022-08-03T17:53:20;984.61;;;39.85;17.23
29815;BME280;16708;50.426;7.664;2022-08-03T17:58:14;984.66;;;38.67;19.33
29815;BME280;16708;50.426;7.664;2022-08-03T18:03:11;984.64;;;38.57;19.31
29815;BME280;16708;50.426;7.664;2022-08-03T18:08:03;984.71;;;38.78;19.61
29815;BME280;16708;50.426;7.664;2022-08-03T18:12:57;984.64;;;37.86;20.34
29815;BME280;16708;50.426;7.664;2022-08-03T18:17:52;984.61;;;37.82;20.60
29815;BME280;16708;50.426;7.664;2022-08-03T18:22:46;984.63;;;37.42;21.34
29815;BME280;16708;50.426;7.664;2022-08-03T18:27:41;984.59;;;35.98;23.99
29815;BME280;16708;50.426;7.664;2022-08-03T18:32:34;984.54;;;33.57;27.04
29815;BME280;16708;50.426;7.664;2022-08-03T18:37:29;984.52;;;32.47;28.30
29815;BME280;16708;50.426;7.664;2022-08-03T18:42:23;984.59;;;31.92;30.15
29815;BME280;16708;50.426;7.664;2022-08-03T18:47:17;984.58;;;31.40;31.39
29815;BME280;16708;50.426;7.664;2022-08-03T18:52:12;984.62;;;31.33;31.90
29815;BME280;16708;50.426;7.664;2022-08-03T18:57:06;984.61;;;31.10;32.07
29815;BME280;16708;50.426;7.664;2022-08-03T19:02:01;984.63;;;30.58;34.22
29815;BME280;16708;50.426;7.664;2022-08-03T19:06:55;984.67;;;30.12;35.74
29815;BME280;16708;50.426;7.664;2022-08-03T19:11:49;984.70;;;29.57;34.28
29815;BME280;16708;50.426;7.664;2022-08-03T19:16:44;984.76;;;29.59;36.45
29815;BME280;16708;50.426;7.664;2022-08-03T19:21:38;984.75;;;29.41;38.54
29815;BME280;16708;50.426;7.664;2022-08-03T19:26:33;984.87;;;29.25;38.60
29815;BME280;16708;50.426;7.664;2022-08-03T19:31:28;984.90;;;29.07;39.41
29815;BME280;16708;50.426;7.664;2022-08-03T19:36:22;984.92;;;28.77;40.19
29815;BME280;16708;50.426;7.664;2022-08-03T19:41:16;984.88;;;28.44;40.69
29815;BME280;16708;50.426;7.664;2022-08-03T19:46:11;984.85;;;28.28;41.68
29815;BME280;16708;50.426;7.664;2022-08-03T19:51:05;984.87;;;28.20;41.96
29815;BME280;16708;50.426;7.664;2022-08-03T19:56:01;984.93;;;28.06;42.15
29815;BME280;16708;50.426;7.664;2022-08-03T20:00:53;984.93;;;27.79;42.88
29815;BME280;16708;50.426;7.664;2022-08-03T20:05:56;984.93;;;27.66;43.32
29815;BME280;16708;50.426;7.664;2022-08-03T20:10:42;984.85;;;27.42;44.76
29815;BME280;16708;50.426;7.664;2022-08-03T20:15:37;984.85;;;27.21;44.35
29815;BME280;16708;50.426;7.664;2022-08-03T20:20:31;984.86;;;26.99;46.54
29815;BME280;16708;50.426;7.664;2022-08-03T20:25:26;984.81;;;26.43;48.55
29815;BME280;16708;50.426;7.664;2022-08-03T20:30:21;984.91;;;26.34;48.22
29815;BME280;16708;50.426;7.664;2022-08-03T20:35:15;984.95;;;26.25;48.40
29815;BME280;16708;50.426;7.664;2022-08-03T20:40:10;984.88;;;26.11;48.76
29815;BME280;16708;50.426;7.664;2022-08-03T20:45:04;984.96;;;26.01;48.42
29815;BME280;16708;50.426;7.664;2022-08-03T20:49:59;984.95;;;26.06;48.49
29815;BME280;16708;50.426;7.664;2022-08-03T20:54:52;984.83;;;26.08;48.46
29815;BME280;16708;50.426;7.664;2022-08-03T20:59:46;984.87;;;26.07;48.48
29815;BME280;16708;50.426;7.664;2022-08-03T21:04:41;984.91;;;25.90;49.50
29815;BME280;16708;50.426;7.664;2022-08-03T21:09:33;984.88;;;25.98;48.29
29815;BME280;16708;50.426;7.664;2022-08-03T21:14:26;984.88;;;25.90;47.69
29815;BME280;16708;50.426;7.664;2022-08-03T21:19:19;984.93;;;25.83;48.11
29815;BME280;16708;50.426;7.664;2022-08-03T21:24:14;984.91;;;25.75;49.00
29815;BME280;16708;50.426;7.664;2022-08-03T21:29:08;984.86;;;25.67;47.64
29815;BME280;16708;50.426;7.664;2022-08-03T21:34:03;984.86;;;25.62;48.05
29815;BME280;16708;50.426;7.664;2022-08-03T21:38:57;984.87;;;25.56;48.47
29815;BME280;16708;50.426;7.664;2022-08-03T21:43:51;984.78;;;25.28;50.81
29815;BME280;16708;50.426;7.664;2022-08-03T21:48:46;984.74;;;25.24;51.17
29815;BME280;16708;50.426;7.664;2022-08-03T21:53:40;984.73;;;25.08;53.57
29815;BME280;16708;50.426;7.664;2022-08-03T21:58:35;984.77;;;24.84;52.03
29815;BME280;16708;50.426;7.664;2022-08-03T22:03:29;984.72;;;24.70;53.26
29815;BME280;16708;50.426;7.664;2022-08-03T22:08:24;984.76;;;24.53;53.97
29815;BME280;16708;50.426;7.664;2022-08-03T22:13:19;984.83;;;24.34;55.45
29815;BME280;16708;50.426;7.664;2022-08-03T22:18:13;984.85;;;24.25;55.08
29815;BME280;16708;50.426;7.664;2022-08-03T22:23:08;984.74;;;24.17;54.68
29815;BME280;16708;50.426;7.664;2022-08-03T22:28:02;984.80;;;24.19;54.87
29815;BME280;16708;50.426;7.664;2022-08-03T22:32:57;984.86;;;24.14;56.37
29815;BME280;16708;50.426;7.664;2022-08-03T22:37:52;984.79;;;23.95;56.45
29815;BME280;16708;50.426;7.664;2022-08-03T22:42:46;984.80;;;23.76;57.74
29815;BME280;16708;50.426;7.664;2022-08-03T22:47:40;984.82;;;23.50;59.45
29815;BME280;16708;50.426;7.664;2022-08-03T22:52:33;984.79;;;23.41;59.56
29815;BME280;16708;50.426;7.664;2022-08-03T22:57:28;984.86;;;23.34;59.52
29815;BME280;16708;50.426;7.664;2022-08-03T23:02:23;984.78;;;23.16;61.14
29815;BME280;16708;50.426;7.664;2022-08-03T23:07:18;984.80;;;23.11;62.73
29815;BME280;16708;50.426;7.664;2022-08-03T23:12:12;984.85;;;22.91;62.93
29815;BME280;16708;50.426;7.664;2022-08-03T23:17:06;984.79;;;22.86;63.10
29815;BME280;16708;50.426;7.664;2022-08-03T23:22:01;984.86;;;22.75;64.69
29815;BME280;16708;50.426;7.664;2022-08-03T23:26:55;984.81;;;22.70;63.10
29815;BME280;16708;50.426;7.664;2022-08-03T23:31:49;984.87;;;22.59;64.53
29815;BME280;16708;50.426;7.664;2022-08-03T23:36:44;984.80;;;22.55;63.55
29815;BME280;16708;50.426;7.664;2022-08-03T23:41:39;984.94;;;22.44;64.04
29815;BME280;16708;50.426;7.664;2022-08-03T23:46:33;985.01;;;22.35;64.83
29815;BME280;16708;50.426;7.664;2022-08-03T23:51:27;984.99;;;22.18;66.26
29815;BME280;16708;50.426;7.664;2022-08-03T23:56:22;984.96;;;22.27;64.54
